McGirk, Missouri
Current Conditions -  °F | °C
As of 12:53 PM on Friday 28 Nov 2014 (Local Time) from KJEF Reporting Station
Clear Clear  
Wind Chill: 56°   Ceiling: Unl
Heat Index: 56°   Visibility: 10mi
Dew Point: 32°   Wind: 9mph
Humidity: 40%   Direction: 190°S
Pressure: 29.95"   Gusts: NA
Location:  38.61°N, 92.48°W
Report Text: KJEF 281853Z 19008KT 10SM CLR 13/00 A2995 RMK AO2 SLP133 T01330000 $
Loading
Personal Weather Stations






























Interactive Weather Map New forecast layout! Learn more

10-Day Weather Forecast

Advertisements
Track Severe Weather on mobile